createdAt,value
2022-09-23T00:01:27.554Z,11.88
2022-09-23T00:03:56.380Z,11.90
2022-09-23T00:06:24.903Z,11.90
2022-09-23T00:08:53.889Z,11.88
2022-09-23T00:11:25.259Z,11.85
2022-09-23T00:13:57.537Z,11.83
2022-09-23T00:16:29.749Z,11.76
2022-09-23T00:18:58.016Z,11.69
2022-09-23T00:21:26.218Z,11.52
2022-09-23T00:23:54.710Z,11.44
2022-09-23T00:26:24.058Z,11.42
2022-09-23T00:28:52.592Z,11.38
2022-09-23T00:31:25.972Z,11.41
2022-09-23T00:33:59.363Z,11.55
2022-09-23T00:36:29.211Z,11.63
2022-09-23T00:38:57.499Z,11.69
2022-09-23T00:41:26.627Z,11.70
2022-09-23T00:43:58.358Z,11.65
2022-09-23T00:46:37.318Z,11.56
2022-09-23T00:49:25.761Z,11.33
2022-09-23T00:52:06.814Z,11.01
2022-09-23T00:54:35.390Z,10.92
2022-09-23T00:57:05.695Z,10.92
2022-09-23T00:59:34.488Z,10.95
2022-09-23T01:02:04.307Z,11.02
2022-09-23T01:04:33.297Z,11.15
2022-09-23T01:07:01.375Z,11.28
2022-09-23T01:09:29.581Z,11.10
2022-09-23T01:12:24.006Z,10.87
2022-09-23T01:15:00.779Z,10.68
2022-09-23T01:17:39.614Z,10.64
2022-09-23T01:20:23.731Z,10.67
2022-09-23T01:23:15.637Z,10.81
2022-09-23T01:26:21.107Z,10.89
2022-09-23T01:28:57.257Z,10.89
2022-09-23T01:31:49.635Z,10.91
2022-09-23T01:35:01.382Z,10.82
2022-09-23T01:37:41.844Z,10.72
2022-09-23T01:40:34.926Z,10.66
2022-09-23T01:43:53.200Z,10.53
2022-09-23T01:46:48.284Z,10.50
2022-09-23T01:49:32.617Z,10.54
2022-09-23T01:52:15.908Z,10.67
2022-09-23T01:55:09.523Z,10.66
2022-09-23T01:57:46.982Z,10.71
2022-09-23T02:00:18.100Z,10.77
2022-09-23T02:02:54.505Z,10.91
2022-09-23T02:05:28.013Z,10.89
2022-09-23T02:08:06.202Z,10.77
2022-09-23T02:11:00.731Z,10.67
2022-09-23T02:13:39.484Z,10.61
2022-09-23T02:16:39.523Z,10.49
2022-09-23T02:19:18.242Z,10.58
2022-09-23T02:22:03.840Z,10.62
2022-09-23T02:24:36.473Z,10.59
2022-09-23T02:27:37.649Z,10.51
2022-09-23T02:30:14.156Z,10.56
2022-09-23T02:33:00.602Z,10.55
2022-09-23T02:35:44.098Z,10.53
2022-09-23T02:38:29.545Z,10.49
2022-09-23T02:41:23.129Z,10.48
2022-09-23T02:44:01.962Z,10.49
2022-09-23T02:46:30.731Z,10.55
2022-09-23T02:49:13.813Z,10.57
2022-09-23T02:51:43.330Z,10.42
2022-09-23T02:54:18.128Z,10.33
2022-09-23T02:56:51.538Z,10.10
2022-09-23T02:59:20.966Z,9.72
2022-09-23T03:02:21.877Z,9.61
2022-09-23T03:05:26.468Z,9.64
2022-09-23T03:08:43.086Z,9.85
2022-09-23T03:11:13.679Z,10.09
2022-09-23T03:14:06.701Z,10.28
2022-09-23T03:16:42.789Z,10.34
2022-09-23T03:19:33.911Z,10.25
2022-09-23T03:22:19.018Z,10.19
2022-09-23T03:24:53.713Z,10.21
2022-09-23T03:27:29.994Z,10.26
2022-09-23T03:30:01.464Z,10.43
2022-09-23T03:32:32.083Z,10.39
2022-09-23T03:35:02.946Z,10.19
2022-09-23T03:37:46.707Z,10.11
2022-09-23T03:40:32.543Z,10.03
2022-09-23T03:43:07.165Z,10.14
2022-09-23T03:45:36.409Z,10.15
2022-09-23T03:48:04.641Z,10.33
2022-09-23T03:50:32.801Z,10.33
2022-09-23T03:53:01.509Z,10.33
2022-09-23T03:55:29.663Z,10.26
2022-09-23T03:58:00.298Z,10.21
2022-09-23T04:00:28.381Z,9.93
2022-09-23T04:02:57.288Z,9.90
2022-09-23T04:05:25.388Z,9.89
2022-09-23T04:07:53.621Z,9.99
2022-09-23T04:10:21.767Z,10.15
2022-09-23T04:12:49.948Z,10.13
2022-09-23T04:15:18.088Z,10.17
2022-09-23T04:17:46.255Z,10.19
2022-09-23T04:20:14.495Z,10.21
2022-09-23T04:22:42.835Z,10.19
2022-09-23T04:25:13.754Z,10.12
2022-09-23T04:27:41.837Z,9.96
2022-09-23T04:30:10.502Z,9.84
2022-09-23T04:32:41.758Z,9.79
2022-09-23T04:35:09.945Z,9.74
2022-09-23T04:37:38.107Z,9.84
2022-09-23T04:40:08.147Z,10.06
2022-09-23T04:42:39.295Z,10.18
2022-09-23T04:45:07.931Z,10.19
2022-09-23T04:47:36.327Z,10.08
2022-09-23T04:50:07.530Z,9.85
2022-09-23T04:52:35.619Z,9.58
2022-09-23T04:55:05.320Z,9.40
2022-09-23T04:57:36.090Z,9.41
2022-09-23T05:00:04.684Z,9.45
2022-09-23T05:02:34.146Z,9.51
2022-09-23T05:05:02.368Z,9.62
2022-09-23T05:07:33.491Z,9.78
2022-09-23T05:10:01.609Z,10.03
2022-09-23T05:12:29.767Z,10.19
2022-09-23T05:14:57.903Z,10.17
2022-09-23T05:17:26.100Z,10.09
2022-09-23T05:19:58.281Z,10.00
2022-09-23T05:22:26.846Z,10.12
2022-09-23T05:24:57.625Z,10.17
2022-09-23T05:27:25.734Z,10.18
2022-09-23T05:29:53.932Z,10.10
2022-09-23T05:32:22.499Z,10.09
2022-09-23T05:34:50.604Z,10.09
2022-09-23T05:37:18.685Z,10.21
2022-09-23T05:39:46.758Z,10.33
2022-09-23T05:42:15.885Z,10.35
2022-09-23T05:44:44.201Z,10.29
2022-09-23T05:47:12.257Z,10.29
2022-09-23T05:49:58.624Z,10.40
2022-09-23T05:52:28.459Z,10.57
2022-09-23T05:54:56.494Z,10.58
2022-09-23T05:57:27.297Z,10.54
2022-09-23T05:59:55.412Z,10.60
2022-09-23T06:02:23.659Z,10.70
2022-09-23T06:04:51.874Z,10.85
2022-09-23T06:07:22.948Z,11.05
2022-09-23T06:09:52.800Z,11.27
2022-09-23T06:12:21.320Z,11.48
2022-09-23T06:14:50.715Z,11.67
2022-09-23T06:17:18.880Z,11.82
2022-09-23T06:19:46.954Z,11.86
2022-09-23T06:22:16.936Z,11.90
2022-09-23T06:24:45.007Z,12.02
2022-09-23T06:27:13.441Z,12.15
2022-09-23T06:29:41.510Z,12.31
2022-09-23T06:32:09.614Z,12.43
2022-09-23T06:34:49.592Z,12.56
2022-09-23T06:37:20.614Z,12.71
2022-09-23T06:39:49.181Z,12.86
2022-09-23T06:42:17.694Z,12.98
2022-09-23T06:44:45.821Z,13.32
2022-09-23T06:47:14.390Z,13.76
2022-09-23T06:49:42.517Z,14.14
2022-09-23T06:52:10.649Z,14.44
2022-09-23T06:54:38.734Z,14.84
2022-09-23T06:57:10.251Z,15.18
2022-09-23T06:59:38.310Z,15.44
2022-09-23T07:02:07.504Z,15.77
2022-09-23T07:04:36.021Z,15.88
2022-09-23T07:07:04.277Z,15.94
2022-09-23T07:09:32.469Z,16.21
2022-09-23T07:12:00.609Z,16.33
2022-09-23T07:14:28.682Z,16.40
2022-09-23T07:16:57.321Z,16.52
2022-09-23T07:19:26.153Z,16.80
2022-09-23T07:21:54.308Z,16.99
2022-09-23T07:24:22.986Z,17.13
2022-09-23T07:26:51.116Z,17.49
2022-09-23T07:29:19.216Z,17.70
2022-09-23T07:31:47.316Z,18.10
2022-09-23T07:34:15.544Z,18.03
2022-09-23T07:36:46.577Z,18.40
2022-09-23T07:39:14.934Z,18.52
2022-09-23T07:41:44.603Z,18.49
2022-09-23T07:44:13.770Z,18.19
2022-09-23T07:46:42.886Z,18.41
2022-09-23T07:49:11.327Z,18.77
2022-09-23T07:51:40.978Z,19.10
2022-09-23T07:54:12.811Z,19.53
2022-09-23T07:56:41.813Z,19.97
2022-09-23T07:59:15.339Z,20.15
2022-09-23T08:01:46.308Z,20.04
2022-09-23T08:04:21.008Z,20.14
2022-09-23T08:06:52.195Z,20.21
2022-09-23T08:09:23.075Z,20.38
2022-09-23T08:11:52.492Z,20.81
2022-09-23T08:14:22.286Z,21.13
2022-09-23T08:16:51.168Z,21.15
2022-09-23T08:19:19.840Z,21.17
2022-09-23T08:21:48.223Z,21.12
2022-09-23T08:24:19.288Z,21.16
2022-09-23T08:26:48.703Z,21.36
2022-09-23T08:29:19.148Z,21.09
2022-09-23T08:31:49.533Z,20.78
2022-09-23T08:34:19.584Z,20.86
2022-09-23T08:36:48.137Z,20.95
2022-09-23T08:39:23.198Z,20.98
2022-09-23T08:41:58.585Z,20.96
2022-09-23T08:44:44.998Z,20.92
2022-09-23T08:47:22.403Z,20.92
2022-09-23T08:49:53.413Z,20.87
2022-09-23T08:52:39.862Z,20.86
2022-09-23T08:55:12.749Z,21.04
2022-09-23T09:01:00.757Z,20.72
2022-09-23T09:03:40.668Z,20.77
2022-09-23T09:06:17.841Z,20.74
2022-09-23T09:08:53.044Z,20.84
2022-09-23T09:11:23.553Z,20.88
2022-09-23T09:14:18.611Z,20.98
2022-09-23T09:17:09.656Z,20.87
2022-09-23T09:19:43.827Z,21.01
2022-09-23T09:22:20.506Z,21.04
2022-09-23T09:24:50.464Z,20.90
2022-09-23T09:27:19.176Z,20.94
2022-09-23T09:29:53.383Z,20.88
2022-09-23T09:32:35.983Z,20.89
2022-09-23T09:35:20.160Z,20.89
2022-09-23T09:37:48.673Z,20.69
2022-09-23T09:40:17.695Z,20.57
2022-09-23T09:42:49.819Z,20.66
2022-09-23T09:45:26.347Z,20.78
2022-09-23T09:48:14.998Z,20.98
2022-09-23T09:50:45.863Z,20.93
2022-09-23T09:53:25.241Z,21.03
2022-09-23T09:56:04.643Z,21.03
2022-09-23T09:58:50.558Z,21.04
2022-09-23T10:01:33.390Z,20.88
2022-09-23T10:04:06.907Z,20.96
2022-09-23T10:06:36.182Z,20.78
2022-09-23T10:09:09.446Z,20.83
2022-09-23T10:11:38.551Z,21.06
2022-09-23T10:14:24.530Z,20.93
2022-09-23T10:17:05.456Z,21.12
2022-09-23T10:19:37.140Z,21.15
2022-09-23T10:22:22.041Z,21.19
2022-09-23T10:24:57.513Z,21.23
2022-09-23T10:27:35.334Z,21.26
2022-09-23T10:30:23.568Z,21.32
2022-09-23T10:32:54.936Z,21.12
2022-09-23T10:35:25.513Z,21.04
2022-09-23T10:37:58.856Z,21.05
2022-09-23T10:40:49.708Z,21.03
2022-09-23T10:44:04.284Z,21.22
2022-09-23T10:47:04.466Z,21.32
2022-09-23T10:49:52.616Z,21.46
2022-09-23T10:52:48.200Z,21.46
2022-09-23T10:55:44.975Z,21.42
2022-09-23T10:58:36.614Z,21.21
2022-09-23T11:01:25.815Z,21.48
2022-09-23T11:04:09.283Z,21.76
2022-09-23T11:06:58.153Z,22.02
2022-09-23T11:09:44.191Z,22.12
2022-09-23T11:12:12.341Z,22.22
2022-09-23T11:14:43.435Z,22.46
2022-09-23T11:17:14.876Z,22.28
2022-09-23T11:19:56.013Z,22.39
2022-09-23T11:22:38.087Z,22.39
2022-09-23T11:25:16.834Z,22.72
2022-09-23T11:28:06.600Z,23.17
2022-09-23T11:30:37.779Z,23.42
2022-09-23T11:33:49.381Z,23.30
2022-09-23T11:36:39.812Z,23.23
2022-09-23T11:39:17.528Z,23.45
2022-09-23T11:41:47.140Z,23.75
2022-09-23T11:44:27.750Z,23.62
2022-09-23T11:46:58.920Z,23.78
2022-09-23T11:49:27.132Z,24.10
2022-09-23T11:52:08.903Z,24.29
2022-09-23T11:54:48.796Z,24.15
2022-09-23T11:57:48.990Z,24.32
2022-09-23T12:00:21.099Z,24.41
2022-09-23T12:03:17.914Z,23.80
2022-09-23T12:05:51.398Z,23.46
2022-09-23T12:08:29.852Z,23.54
2022-09-23T12:11:16.351Z,23.84
2022-09-23T12:14:08.587Z,24.00
2022-09-23T12:16:39.824Z,23.87
2022-09-23T12:19:07.967Z,23.97
2022-09-23T12:21:51.749Z,24.20
2022-09-23T12:24:31.746Z,24.31
2022-09-23T12:27:07.866Z,24.53
2022-09-23T12:29:37.880Z,24.40
2022-09-23T12:32:10.034Z,24.66
2022-09-23T12:34:44.146Z,24.37
2022-09-23T12:37:14.105Z,23.87
2022-09-23T12:39:46.837Z,24.24
2022-09-23T12:42:22.841Z,24.44
2022-09-23T12:44:51.913Z,24.63
2022-09-23T12:47:25.840Z,24.52
2022-09-23T12:49:55.129Z,24.35
2022-09-23T12:52:27.892Z,24.61
2022-09-23T12:54:58.725Z,24.47
2022-09-23T12:57:35.723Z,25.10
2022-09-23T13:00:22.661Z,25.51
2022-09-23T13:03:10.662Z,25.50
2022-09-23T13:06:19.077Z,25.69
2022-09-23T13:08:49.508Z,25.82
2022-09-23T13:11:28.764Z,26.21
2022-09-23T13:14:02.103Z,25.97
2022-09-23T13:16:33.908Z,25.72
2022-09-23T13:19:24.672Z,26.34
2022-09-23T13:21:58.235Z,26.55
2022-09-23T13:24:28.945Z,26.22
2022-09-23T13:27:15.841Z,26.11
2022-09-23T13:30:02.502Z,26.15
2022-09-23T13:32:34.320Z,26.06
2022-09-23T13:35:16.315Z,25.35
2022-09-23T13:37:47.558Z,24.38
2022-09-23T13:40:21.702Z,24.16
2022-09-23T13:43:03.161Z,24.49
2022-09-23T13:45:36.256Z,25.03
2022-09-23T13:48:07.385Z,25.30
2022-09-23T13:50:54.679Z,24.73
2022-09-23T13:53:31.096Z,24.39
2022-09-23T13:56:19.453Z,24.83
2022-09-23T13:58:48.805Z,24.84
2022-09-23T14:01:36.124Z,24.23
2022-09-23T14:04:04.292Z,23.88
2022-09-23T14:06:38.148Z,23.82
2022-09-23T14:09:07.009Z,23.76
2022-09-23T14:11:35.619Z,23.67
2022-09-23T14:14:08.069Z,23.41
2022-09-23T14:16:39.513Z,23.14
2022-09-23T14:19:11.487Z,22.99
2022-09-23T14:21:40.553Z,22.61
2022-09-23T14:24:25.990Z,22.44
2022-09-23T14:27:00.211Z,22.49
2022-09-23T14:29:35.227Z,22.61
2022-09-23T14:32:05.214Z,22.84
2022-09-23T14:35:01.199Z,22.94
2022-09-23T14:37:57.250Z,22.82
2022-09-23T14:40:50.784Z,22.71
2022-09-23T14:43:25.000Z,22.19
2022-09-23T14:46:02.013Z,22.07
2022-09-23T14:48:35.449Z,21.97
2022-09-23T14:51:06.294Z,21.85
2022-09-23T14:53:40.682Z,21.98
2022-09-23T14:56:08.833Z,21.92
2022-09-23T14:58:59.584Z,21.92
2022-09-23T15:01:33.675Z,21.93
2022-09-23T15:04:13.009Z,21.66
2022-09-23T15:06:54.633Z,21.70
2022-09-23T15:09:29.748Z,21.76
2022-09-23T15:12:05.109Z,21.82
2022-09-23T15:14:41.053Z,21.96
2022-09-23T15:17:24.423Z,21.84
2022-09-23T15:19:56.884Z,21.50
2022-09-23T15:22:26.245Z,21.26
2022-09-23T15:25:08.411Z,21.26
2022-09-23T15:27:36.619Z,21.29
2022-09-23T15:30:19.394Z,21.31
2022-09-23T15:32:47.841Z,21.19
2022-09-23T15:35:19.006Z,21.16
2022-09-23T15:37:49.130Z,21.10
2022-09-23T15:40:30.202Z,21.11
2022-09-23T15:43:01.226Z,21.13
2022-09-23T15:45:37.003Z,21.17
2022-09-23T15:48:10.906Z,21.15
2022-09-23T15:50:41.181Z,21.07
2022-09-23T15:53:15.127Z,21.06
2022-09-23T15:55:43.252Z,21.06
2022-09-23T15:58:11.467Z,20.93
2022-09-23T16:00:39.727Z,20.77
2022-09-23T16:03:07.846Z,20.79
2022-09-23T16:05:40.400Z,20.84
2022-09-23T16:08:10.423Z,20.61
2022-09-23T16:10:38.972Z,20.50
2022-09-23T16:13:12.321Z,20.30
2022-09-23T16:15:40.779Z,20.21
2022-09-23T16:18:10.477Z,20.11
2022-09-23T16:20:44.838Z,20.06
2022-09-23T16:23:35.358Z,19.93
2022-09-23T16:26:15.277Z,19.85
2022-09-23T16:28:45.533Z,19.74
2022-09-23T16:31:16.094Z,19.69
2022-09-23T16:33:45.944Z,19.72
2022-09-23T16:36:31.371Z,19.67
2022-09-23T16:39:01.860Z,19.57
2022-09-23T16:41:33.673Z,19.45
2022-09-23T16:44:04.558Z,19.33
2022-09-23T16:46:34.028Z,19.19
2022-09-23T16:49:02.607Z,19.05
2022-09-23T16:51:38.367Z,18.92
2022-09-23T16:54:12.118Z,18.82
2022-09-23T16:56:45.058Z,18.76
2022-09-23T16:59:14.961Z,18.56
2022-09-23T17:02:02.383Z,18.45
2022-09-23T17:04:33.125Z,18.34
2022-09-23T17:07:01.373Z,18.20
2022-09-23T17:09:42.578Z,18.13
2022-09-23T17:12:32.640Z,18.13
2022-09-23T17:15:01.243Z,18.02
2022-09-23T17:17:29.582Z,17.91
2022-09-23T17:19:57.639Z,17.80
2022-09-23T17:22:26.094Z,17.71
2022-09-23T17:24:54.269Z,17.59
2022-09-23T17:27:22.684Z,17.48
2022-09-23T17:29:51.581Z,17.38
2022-09-23T17:32:20.951Z,17.32
2022-09-23T17:34:52.262Z,17.25
2022-09-23T17:37:20.293Z,17.20
2022-09-23T17:39:48.495Z,17.09
2022-09-23T17:42:18.183Z,17.02
2022-09-23T17:44:46.530Z,16.93
2022-09-23T17:47:14.726Z,16.80
2022-09-23T17:49:42.936Z,16.66
2022-09-23T17:52:11.035Z,16.54
2022-09-23T17:54:39.196Z,16.40
2022-09-23T17:57:07.357Z,16.30
2022-09-23T17:59:35.417Z,16.24
2022-09-23T18:02:03.707Z,16.15
2022-09-23T18:04:33.982Z,16.05
2022-09-23T18:07:04.658Z,15.97
2022-09-23T18:09:32.731Z,15.87
2022-09-23T18:12:00.878Z,15.82
2022-09-23T18:14:29.353Z,15.76
2022-09-23T18:16:57.521Z,15.71
2022-09-23T18:19:25.897Z,15.66
2022-09-23T18:21:57.198Z,15.60
2022-09-23T18:24:32.227Z,15.54
2022-09-23T18:27:01.779Z,15.46
2022-09-23T18:29:30.165Z,15.43
2022-09-23T18:31:59.301Z,15.42
2022-09-23T18:34:28.571Z,15.38
2022-09-23T18:36:56.649Z,15.34
2022-09-23T18:39:25.023Z,15.31
2022-09-23T18:41:53.142Z,15.27
2022-09-23T18:44:24.383Z,15.25
2022-09-23T18:46:52.491Z,15.20
2022-09-23T18:49:39.448Z,15.16
2022-09-23T18:52:07.639Z,15.12
2022-09-23T18:54:35.688Z,15.09
2022-09-23T18:57:03.841Z,15.03
2022-09-23T18:59:33.451Z,15.00
2022-09-23T19:02:01.811Z,14.95
2022-09-23T19:04:30.109Z,14.91
2022-09-23T19:06:58.877Z,14.87
2022-09-23T19:09:30.935Z,14.84
2022-09-23T19:11:59.005Z,14.82
2022-09-23T19:14:27.168Z,14.81
2022-09-23T19:16:55.219Z,14.78
2022-09-23T19:19:23.320Z,14.80
2022-09-23T19:21:51.754Z,14.81
2022-09-23T19:24:21.017Z,14.83
2022-09-23T19:26:50.271Z,14.84
2022-09-23T19:29:19.876Z,14.84
2022-09-23T19:31:48.855Z,14.81
2022-09-23T19:34:20.261Z,14.80
2022-09-23T19:36:48.565Z,14.82
2022-09-23T19:39:25.280Z,14.81
2022-09-23T19:41:55.997Z,14.79
2022-09-23T19:44:26.088Z,14.77
2022-09-23T19:46:56.871Z,14.73
2022-09-23T19:49:26.015Z,14.69
2022-09-23T19:51:56.092Z,14.69
2022-09-23T19:54:26.626Z,14.70
2022-09-23T19:56:55.079Z,14.74
2022-09-23T19:59:23.272Z,14.83
2022-09-23T20:01:51.584Z,14.86
2022-09-23T20:04:20.056Z,14.97
2022-09-23T20:06:49.666Z,15.11
2022-09-23T20:09:17.869Z,15.25
2022-09-23T20:11:48.750Z,15.19
2022-09-23T20:14:19.436Z,15.15
2022-09-23T20:16:47.760Z,15.11
2022-09-23T20:19:16.147Z,15.20
2022-09-23T20:21:46.743Z,15.36
2022-09-23T20:24:14.831Z,15.47
2022-09-23T20:27:01.709Z,15.50
2022-09-23T20:29:29.836Z,15.55
2022-09-23T20:31:58.792Z,15.59
2022-09-23T20:34:29.863Z,15.57
2022-09-23T20:36:59.192Z,15.17
2022-09-23T20:39:28.180Z,14.96
2022-09-23T20:41:56.392Z,14.79
2022-09-23T20:44:25.082Z,14.71
2022-09-23T20:46:53.227Z,14.74
2022-09-23T20:49:21.526Z,14.90
2022-09-23T20:51:50.318Z,15.11
2022-09-23T20:54:19.268Z,15.30
2022-09-23T20:56:48.026Z,15.33
2022-09-23T20:59:17.794Z,15.41
2022-09-23T21:01:47.297Z,15.44
2022-09-23T21:04:15.708Z,15.48
2022-09-23T21:06:43.853Z,15.51
2022-09-23T21:09:11.987Z,15.51
2022-09-23T21:11:40.117Z,15.50
2022-09-23T21:14:08.392Z,15.51
2022-09-23T21:16:36.620Z,15.48
2022-09-23T21:19:07.971Z,15.49
2022-09-23T21:21:36.506Z,15.48
2022-09-23T21:24:31.405Z,15.46
2022-09-23T21:26:52.924Z,15.45
2022-09-23T21:29:21.941Z,15.43
2022-09-23T21:31:50.201Z,15.37
2022-09-23T21:34:19.291Z,15.28
2022-09-23T21:36:48.432Z,15.36
2022-09-23T21:39:16.656Z,15.44
2022-09-23T21:41:44.763Z,15.43
2022-09-23T21:44:12.796Z,15.44
2022-09-23T21:46:41.008Z,15.51
2022-09-23T21:49:09.220Z,15.56
2022-09-23T21:51:42.831Z,15.59
2022-09-23T21:54:18.818Z,15.61
2022-09-23T21:56:46.978Z,15.61
2022-09-23T21:59:15.159Z,15.62
2022-09-23T22:01:51.776Z,15.60
2022-09-23T22:04:22.132Z,15.71
2022-09-23T22:06:50.265Z,15.74
2022-09-23T22:09:21.004Z,15.75
2022-09-23T22:12:08.027Z,15.76
2022-09-23T22:14:36.896Z,15.80
2022-09-23T22:17:06.921Z,15.85
2022-09-23T22:19:40.196Z,15.84
2022-09-23T22:22:16.092Z,15.84
2022-09-23T22:24:46.150Z,15.84
2022-09-23T22:27:17.104Z,15.85
2022-09-23T22:30:03.734Z,15.84
2022-09-23T22:32:40.752Z,15.79
2022-09-23T22:35:17.692Z,15.77
2022-09-23T22:37:47.958Z,15.73
2022-09-23T22:40:16.624Z,15.75
2022-09-23T22:42:45.141Z,15.74
2022-09-23T22:45:13.493Z,15.74
2022-09-23T22:47:45.375Z,15.74
2022-09-23T22:50:15.251Z,15.79
2022-09-23T22:52:43.907Z,15.77
2022-09-23T22:55:12.707Z,15.72
2022-09-23T22:57:40.789Z,15.69
2022-09-23T23:00:09.496Z,15.66
2022-09-23T23:02:37.586Z,15.68
2022-09-23T23:05:06.291Z,15.72
2022-09-23T23:07:37.169Z,15.76
2022-09-23T23:10:10.266Z,15.78
2022-09-23T23:12:39.530Z,15.79
2022-09-23T23:15:09.322Z,15.82
2022-09-23T23:17:38.241Z,15.83
2022-09-23T23:20:07.124Z,15.85
2022-09-23T23:22:35.247Z,15.84
2022-09-23T23:25:03.451Z,15.80
2022-09-23T23:27:34.391Z,15.81
2022-09-23T23:30:02.513Z,15.79
2022-09-23T23:32:31.002Z,15.81
2022-09-23T23:34:59.074Z,15.73
2022-09-23T23:37:28.397Z,15.75
2022-09-23T23:39:56.487Z,15.75
2022-09-23T23:42:25.843Z,15.71
2022-09-23T23:44:55.220Z,15.75
2022-09-23T23:47:25.491Z,15.71
2022-09-23T23:49:55.633Z,15.72
2022-09-23T23:52:23.748Z,15.73
2022-09-23T23:54:52.246Z,15.72
2022-09-23T23:57:20.380Z,15.73
2022-09-23T23:59:48.451Z,15.71
